Griffith Spring, Arkansas
Current Conditions -  °F | °C
As of 11:53 PM on Saturday 22 Nov 2014 (Local Time) from KPBF Reporting Station
Overcast Overcast  
Wind Chill: 58°   Ceiling: 5000
Heat Index: 58°   Visibility: 10mi
Dew Point: 51°   Wind: 8mph
Humidity: 78%   Direction: 120°ESE
Pressure: 29.87"   Gusts: NA
Location:  33.924°N, 91.8685°W
Report Text: KPBF 230553Z AUTO 12007KT 10SM OVC050 14/11 A2987 RMK AO2 SLP115 T01440106 10172 20133 402110094 56028
Loading
Personal Weather Stations






























Interactive Weather Map New forecast layout! Learn more

10-Day Weather Forecast

Advertisements
Track Severe Weather on mobile